Latest Coastal Weather Observations for Kalumburu

IDW60701

Issued at 9:12 am WST Sunday 26 April 2015 (issued every 10 minutes, with the page automatically refreshed every 10 minutes)

About coastal observations | Map of coastal stations | Coastal observations for WA | Marine services | Other Formats
Station Details ID: 001019 Name: KALUMBURU Lat: -14.30 Lon: 126.65 Height: 23.0 m
Data from the previous 72 hours. | See also: Recent months at Kalumburu
Date/Time
WST
Temp

°C
Wind Pressure Rain
since 9am
mm
Weather Cloud Vis
km
Sea
Height
m
Swell
Dir
 
Speed
knots
Gust
knots
hPa Trend Height
m
Period
s
Dir
26/09:00am 29.7 ESE 12 21 1014.1 - 0.0 - - - - - - -
26/08:30am 28.8 ESE 12 19 1013.9 - 0.0 - - - - - - -
26/08:00am 28.2 ESE 11 19 1013.5 - 0.0 - - - - - - -
26/07:30am 27.2 ESE 9 14 1013.2 - 0.0 - - - - - - -
26/07:00am 25.8 ESE 7 12 1013.0 - 0.0 - - - - - - -
26/06:30am 21.0 SSE 3 6 1012.7 - 0.0 - - - - - - -
26/06:00am 17.3 CALM 0 0 1012.3 - 0.0 - - - - - - -
26/05:30am 16.9 CALM 0 0 1011.8 - 0.0 - - - - - - -
26/05:00am 19.6 SSW 5 7 1011.7 - 0.0 - - - - - - -
26/04:30am 20.1 SSW 5 6 1011.7 - 0.0 - - - - - - -
26/04:00am 20.4 SW 5 7 1011.6 - 0.0 - - - - - - -
26/03:30am 18.3 SSW 4 5 1011.7 - 0.0 - - - - - - -
26/03:00am 17.5 S 3 4 1011.5 - 0.0 - - - - - - -
26/02:30am 17.4 S 1 5 1011.3 - 0.0 - - - - - - -
26/02:00am 17.4 S 3 4 1011.4 - 0.0 - - - - - - -
26/01:30am 17.8 CALM 0 0 1011.5 - 0.0 - - - - - - -
26/01:00am 18.1 CALM 0 0 1011.6 - 0.0 - - - - - - -
26/12:30am 18.4 CALM 0 0 1011.8 - 0.0 - - - - - - -
26/12:00am 18.6 CALM 0 0 1012.0 - 0.0 - - - - - - -
 
Date/Time
WST
Temp

°C
Wind Pressure Rain
since 9am
mm
Weather Cloud Vis
km
Sea
Height
m
Swell
Dir
 
Speed
knots
Gust
knots
hPa Trend Height
m
Period
s
Dir
25/11:30pm 19.3 CALM 0 0 1012.1 - 0.0 - - - - - - -
25/11:00pm 19.5 CALM 0 2 1012.2 - 0.0 - - - - - - -
25/10:30pm 20.9 CALM 0 0 1012.4 - 0.0 - - - - - - -
25/10:00pm 21.1 SE 2 4 1012.6 - 0.0 - - - - - - -
25/09:30pm 24.0 SSW 5 6 1012.6 - 0.0 - - - - - - -
25/09:00pm 22.0 S 3 5 1012.8 - 0.0 - - - - - - -
25/08:30pm 22.4 CALM 0 4 1012.6 - 0.0 - - - - - - -
25/08:00pm 23.8 CALM 0 0 1012.4 - 0.0 - - - - - - -
25/07:30pm 24.1 CALM 0 0 1012.2 - 0.0 - - - - - - -
25/07:00pm 25.6 NNE 3 5 1011.7 - 0.0 - - - - - - -
25/06:30pm 26.0 NW 3 4 1011.3 - 0.0 - - - - - - -
25/06:00pm 26.2 SSE 2 3 1010.7 - 0.0 - - - - - - -
25/05:30pm 29.3 ENE 4 6 1010.2 - 0.0 - - - - - - -
25/05:00pm 30.8 ENE 4 7 1009.8 - 0.0 - - - - - - -
25/04:30pm 32.0 E 4 7 1009.1 - 0.0 - - - - - - -
25/04:00pm 33.1 ENE 6 8 1008.7 - 0.0 - - - - - - -
25/03:30pm 33.8 ENE 7 11 1008.3 - 0.0 - - - - - - -
25/03:00pm 34.0 E 7 13 1008.2 - 0.0 - - - - - - -
25/02:30pm 34.9 ENE 6 11 1008.3 - 0.0 - - - - - - -
25/02:00pm 34.7 E 5 7 1008.4 - 0.0 - - - - - - -
25/01:30pm 35.1 ESE 6 12 1008.6 - 0.0 - - - - - - -
25/01:00pm 34.0 ENE 6 11 1008.9 - 0.0 - - - - - - -
25/12:30pm 34.6 ESE 9 14 1009.2 - 0.0 - - - - - - -
25/12:00pm 34.7 E 9 16 1009.6 - 0.0 - - - - - - -
25/11:30am 34.3 E 8 15 1009.9 - 0.0 - - - - - - -
25/11:00am 33.9 ESE 9 16 1010.2 - 0.0 - - - - - - -
25/10:30am 33.5 ESE 8 11 1010.6 - 0.0 - - - - - - -
25/10:00am 33.2 ESE 8 13 1011.2 - 0.0 - - - - - - -
25/09:30am 32.4 ESE 9 15 1011.6 - 0.0 - - - - - - -
25/09:00am 31.7 SE 7 11 1011.8 - 0.0 - - - - - - -
25/08:30am 28.6 SSW 4 6 1012.0 - 0.0 - - - - - - -
25/08:00am 26.5 S 4 5 1011.9 - 0.0 - - - - - - -
25/07:30am 24.8 S 2 5 1011.8 - 0.0 - - - - - - -
25/07:00am 22.1 S 3 5 1011.5 - 0.0 - - - - - - -
25/06:30am 19.5 SSE 3 4 1011.3 - 0.0 - - - - - - -
25/06:00am 18.1 S 3 5 1010.6 - 0.0 - - - - - - -
25/05:30am 18.2 S 3 5 1010.3 - 0.0 - - - - - - -
25/05:00am 17.7 CALM 0 4 1010.2 - 0.0 - - - - - - -
25/04:30am 17.9 SSW 1 3 1009.9 - 0.0 - - - - - - -
25/04:00am 18.0 CALM 0 0 1009.8 - 0.0 - - - - - - -
25/03:30am 18.2 CALM 0 0 1009.9 - 0.0 - - - - - - -
25/03:00am 18.4 S 2 4 1010.1 - 0.0 - - - - - - -
25/02:30am 18.6 CALM 0 0 1010.4 - 0.0 - - - - - - -
25/02:00am 18.8 CALM 0 0 1010.5 - 0.0 - - - - - - -
25/01:30am 19.1 CALM 0 0 1010.6 - 0.0 - - - - - - -
25/01:00am 19.5 CALM 0 0 1010.9 - 0.0 - - - - - - -
25/12:30am 19.8 SSE 3 4 1011.1 - 0.0 - - - - - - -
25/12:00am 19.8 SSE 2 3 1011.3 - 0.0 - - - - - - -
 
Date/Time
WST
Temp

°C
Wind Pressure Rain
since 9am
mm
Weather Cloud Vis
km
Sea
Height
m
Swell
Dir
 
Speed
knots
Gust
knots
hPa Trend Height
m
Period
s
Dir
24/11:30pm 20.3 CALM 0 0 1011.5 - 0.0 - - - - - - -
24/11:00pm 20.7 ENE 2 3 1011.5 - 0.0 - - - - - - -
24/10:30pm 20.8 SE 2 3 1011.5 - 0.0 - - - - - - -
24/10:00pm 21.3 SSE 3 4 1011.6 - 0.0 - - - - - - -
24/09:30pm 22.4 CALM 0 0 1011.7 - 0.0 - - - - - - -
24/09:00pm 23.1 SW 2 4 1011.7 - 0.0 - - - - - - -
24/08:30pm 24.4 SW 2 3 1011.7 - 0.0 - - - - - - -
24/08:00pm 25.4 CALM 0 0 1011.5 - 0.0 - - - - - - -
24/07:30pm 27.0 ENE 4 6 1011.4 - 0.0 - - - - - - -
24/07:00pm 27.5 ENE 5 8 1010.9 - 0.0 - - - - - - -
24/06:30pm 25.2 NE 2 5 1010.3 - 0.0 - - - - - - -
24/06:00pm 26.8 CALM 0 0 1009.7 - 0.0 - - - - - - -
24/05:30pm 27.9 CALM 0 3 1009.1 - 0.0 - - - - - - -
24/05:00pm 30.3 NW 7 11 1008.7 - 0.0 - - - - - - -
24/04:30pm 31.4 NNW 7 11 1008.3 - 0.0 - - - - - - -
24/04:00pm 32.3 NNW 7 10 1008.0 - 0.0 - - - - - - -
24/03:30pm 34.8 NE 4 9 1007.7 - 0.0 - - - - - - -
24/03:00pm 34.3 ENE 5 10 1007.6 - 0.0 - - - - - - -
24/02:30pm 34.7 E 5 9 1007.8 - 0.0 - - - - - - -
24/02:00pm 34.7 SSE 4 7 1008.1 - 0.0 - - - - - - -
24/01:30pm 34.5 ENE 5 12 1008.3 - 0.0 - - - - - - -
24/01:00pm 34.9 NE 5 9 1008.6 - 0.0 - - - - - - -
24/12:30pm 34.4 NE 5 11 1009.0 - 0.0 - - - - - - -
24/12:00pm 34.1 ENE 5 8 1009.4 - 0.0 - - - - - - -
24/11:30am 33.3 E 6 11 1009.6 - 0.0 - - - - - - -
24/11:00am 33.3 E 8 13 1010.1 - 0.0 - - - - - - -
24/10:30am 32.9 ESE 7 12 1010.5 - 0.0 - - - - - - -
24/10:00am 32.6 E 7 12 1010.9 - 0.0 - - - - - - -
24/09:30am 32.0 E 8 13 1011.2 - 0.0 - - - - - - -
24/09:00am 31.4 ESE 4 7 1011.4 - 0.0 - - - - - - -
24/08:30am 28.9 SSW 1 4 1011.4 - 0.0 - - - - - - -
24/08:00am 26.9 CALM 0 0 1011.3 - 0.0 - - - - - - -
24/07:30am 24.1 CALM 0 0 1011.3 - 0.0 - - - - - - -
24/07:00am 22.2 CALM 0 0 1010.8 - 0.0 - - - - - - -
24/06:30am 21.0 CALM 0 0 1010.7 - 0.0 - - - - - - -
24/06:00am 20.2 CALM 0 0 1010.3 - 0.0 - - - - - - -
24/05:30am 19.9 CALM 0 0 1010.0 - 0.0 - - - - - - -
24/05:00am 20.4 CALM 0 0 1009.8 - 0.0 - - - - - - -
24/04:30am 20.3 CALM 0 0 1009.8 - 0.0 - - - - - - -
24/04:00am 20.5 CALM 0 0 1009.6 - 0.0 - - - - - - -
24/03:30am 20.7 CALM 0 0 1009.7 - 0.0 - - - - - - -
24/03:00am 21.0 CALM 0 0 1009.8 - 0.0 - - - - - - -
24/02:30am 21.1 CALM 0 0 1010.0 - 0.0 - - - - - - -
24/02:00am 21.3 CALM 0 0 1010.1 - 0.0 - - - - - - -
24/01:30am 21.7 CALM 0 0 1010.1 - 0.0 - - - - - - -
24/01:00am 22.0 CALM 0 0 1010.2 - 0.0 - - - - - - -
24/12:30am 22.2 CALM 0 0 1010.5 - 0.0 - - - - - - -
24/12:00am 22.8 CALM 0 0 1010.8 - 0.0 - - - - - - -
 
Date/Time
WST
Temp

°C
Wind Pressure Rain
since 9am
mm
Weather Cloud Vis
km
Sea
Height
m
Swell
Dir
 
Speed
knots
Gust
knots
hPa Trend Height
m
Period
s
Dir
23/11:30pm 23.0 CALM 0 0 1011.2 - 0.0 - - - - - - -
23/11:00pm 22.8 CALM 0 0 1011.4 - 0.0 - - - - - - -
23/10:30pm 23.1 CALM 0 0 1011.4 - 0.0 - - - - - - -
23/10:00pm 23.6 SE 2 3 1011.4 - 0.0 - - - - - - -
23/09:30pm 24.4 CALM 0 0 1011.4 - 0.0 - - - - - - -
23/09:00pm 25.6 NNE 3 4 1011.4 - 0.0 - - - - - - -
23/08:30pm 26.3 SSW 1 3 1011.3 - 0.0 - - - - - - -
23/08:00pm 27.6 ENE 3 8 1011.2 - 0.0 - - - - - - -
23/07:30pm 28.0 ENE 5 7 1011.1 - 0.0 - - - - - - -
23/07:00pm 28.3 ENE 5 7 1010.8 - 0.0 - - - - - - -
23/06:30pm 28.5 ENE 5 10 1010.4 - 0.0 - - - - - - -
23/06:00pm 28.4 NE 4 6 1010.0 - 0.0 - - - - - - -
23/05:30pm 29.1 NE 5 7 1009.7 - 0.0 - - - - - - -
23/05:00pm 29.8 NE 5 10 1009.1 - 0.0 - - - - - - -
23/04:30pm 30.7 NE 6 9 1008.7 - 0.0 - - - - - - -
23/04:00pm 32.2 NE 7 11 1008.3 - 0.0 - - - - - - -
23/03:30pm 32.3 ENE 5 10 1008.0 - 0.0 - - - - - - -
23/03:00pm 31.5 NW 4 5 1008.2 - 0.0 - - - - - - -
23/02:30pm 31.5 NW 5 7 1008.1 - 0.0 - - - - - - -
23/02:00pm 31.6 NNE 5 7 1008.3 - 0.0 - - - - - - -
23/01:30pm 32.5 ENE 5 8 1008.3 - 0.0 - - - - - - -
23/01:00pm 32.3 ENE 7 11 1008.6 - 0.0 - - - - - - -
23/12:30pm 31.8 ENE 6 9 1008.9 - 0.0 - - - - - - -
23/12:00pm 32.7 NE 7 9 1009.3 - 0.0 - - - - - - -
23/11:30am 31.8 ESE 5 10 1009.9 - 0.0 - - - - - - -
23/11:00am 32.2 E 5 9 1010.3 - 0.0 - - - - - - -
23/10:30am 31.4 ESE 5 8 1010.8 - 0.0 - - - - - - -
23/10:00am 32.0 SE 5 7 1011.3 - 0.0 - - - - - - -
23/09:30am 30.6 E 4 9 1011.5 - 0.0 - - - - - - -

Other Formats:

Comma delimited format used in spreadsheet applications
http://www.bom.gov.au/fwo/IDW60701/IDW60701.94100.axf

JavaScript Object Notation format (JSON) in row-major order
http://www.bom.gov.au/fwo/IDW60701/IDW60701.94100.json